sensor_id;sensor_type;location;lat;lon;timestamp;P1;durP1;ratioP1;P2;durP2;ratioP2
34573;SDS011;20809;49.594;8.734;2022-09-28T00:02:06;0.83;;;0.83;;
34573;SDS011;20809;49.594;8.734;2022-09-28T00:05:07;5.13;;;0.80;;
34573;SDS011;20809;49.594;8.734;2022-09-28T00:08:08;1.52;;;0.80;;
34573;SDS011;20809;49.594;8.734;2022-09-28T00:11:09;3.17;;;0.80;;
34573;SDS011;20809;49.594;8.734;2022-09-28T00:14:12;1.67;;;0.93;;
34573;SDS011;20809;49.594;8.734;2022-09-28T00:17:14;1.05;;;0.82;;
34573;SDS011;20809;49.594;8.734;2022-09-28T00:20:16;3.03;;;0.85;;
34573;SDS011;20809;49.594;8.734;2022-09-28T00:23:17;1.45;;;0.85;;
34573;SDS011;20809;49.594;8.734;2022-09-28T00:26:17;3.70;;;0.83;;
34573;SDS011;20809;49.594;8.734;2022-09-28T00:32:18;1.03;;;0.80;;
34573;SDS011;20809;49.594;8.734;2022-09-28T00:35:23;5.15;;;0.98;;
34573;SDS011;20809;49.594;8.734;2022-09-28T00:38:27;1.43;;;0.93;;
34573;SDS011;20809;49.594;8.734;2022-09-28T00:41:28;1.15;;;0.80;;
34573;SDS011;20809;49.594;8.734;2022-09-28T00:45:02;3.17;;;1.20;;
34573;SDS011;20809;49.594;8.734;2022-09-28T00:47:56;2.58;;;1.10;;
34573;SDS011;20809;49.594;8.734;2022-09-28T00:50:59;2.47;;;0.85;;
34573;SDS011;20809;49.594;8.734;2022-09-28T00:54:04;0.82;;;0.82;;
34573;SDS011;20809;49.594;8.734;2022-09-28T00:59:25;1.83;;;1.10;;
34573;SDS011;20809;49.594;8.734;2022-09-28T01:02:26;1.67;;;1.02;;
34573;SDS011;20809;49.594;8.734;2022-09-28T01:05:27;2.00;;;0.90;;
34573;SDS011;20809;49.594;8.734;2022-09-28T01:08:28;2.58;;;1.08;;
34573;SDS011;20809;49.594;8.734;2022-09-28T01:11:32;2.22;;;1.13;;
34573;SDS011;20809;49.594;8.734;2022-09-28T01:14:35;4.55;;;0.93;;
34573;SDS011;20809;49.594;8.734;2022-09-28T01:30:28;2.00;;;0.80;;
34573;SDS011;20809;49.594;8.734;2022-09-28T01:36:47;1.97;;;1.03;;
34573;SDS011;20809;49.594;8.734;2022-09-28T01:39:51;3.15;;;0.95;;
34573;SDS011;20809;49.594;8.734;2022-09-28T01:42:56;1.55;;;1.02;;
34573;SDS011;20809;49.594;8.734;2022-09-28T01:46:06;1.17;;;1.00;;
34573;SDS011;20809;49.594;8.734;2022-09-28T01:49:14;1.20;;;0.70;;
34573;SDS011;20809;49.594;8.734;2022-09-28T01:52:28;0.87;;;0.77;;
34573;SDS011;20809;49.594;8.734;2022-09-28T01:55:36;0.63;;;0.50;;
34573;SDS011;20809;49.594;8.734;2022-09-28T01:58:42;0.70;;;0.50;;
34573;SDS011;20809;49.594;8.734;2022-09-28T02:01:54;0.50;;;0.40;;
34573;SDS011;20809;49.594;8.734;2022-09-28T02:05:04;1.85;;;0.75;;
34573;SDS011;20809;49.594;8.734;2022-09-28T02:08:32;2.33;;;0.68;;
34573;SDS011;20809;49.594;8.734;2022-09-28T02:11:37;1.00;;;0.65;;
34573;SDS011;20809;49.594;8.734;2022-09-28T02:14:44;1.30;;;0.70;;
34573;SDS011;20809;49.594;8.734;2022-09-28T02:17:48;0.70;;;0.40;;
34573;SDS011;20809;49.594;8.734;2022-09-28T02:20:52;1.23;;;0.50;;
34573;SDS011;20809;49.594;8.734;2022-09-28T02:24:03;0.47;;;0.30;;
34573;SDS011;20809;49.594;8.734;2022-09-28T02:27:13;0.30;;;0.30;;
34573;SDS011;20809;49.594;8.734;2022-09-28T02:30:16;0.45;;;0.40;;
34573;SDS011;20809;49.594;8.734;2022-09-28T02:36:21;0.40;;;0.30;;
34573;SDS011;20809;49.594;8.734;2022-09-28T02:39:24;0.68;;;0.15;;
34573;SDS011;20809;49.594;8.734;2022-09-28T02:42:33;2.50;;;0.43;;
34573;SDS011;20809;49.594;8.734;2022-09-28T02:45:52;0.70;;;0.20;;
34573;SDS011;20809;49.594;8.734;2022-09-28T02:59:03;0.40;;;0.28;;
34573;SDS011;20809;49.594;8.734;2022-09-28T03:05:29;2.72;;;0.57;;
34573;SDS011;20809;49.594;8.734;2022-09-28T03:11:59;0.60;;;0.40;;
34573;SDS011;20809;49.594;8.734;2022-09-28T03:15:11;0.50;;;0.40;;
34573;SDS011;20809;49.594;8.734;2022-09-28T03:18:20;1.08;;;0.50;;
34573;SDS011;20809;49.594;8.734;2022-09-28T03:21:21;1.40;;;0.53;;
34573;SDS011;20809;49.594;8.734;2022-09-28T03:24:22;0.50;;;0.50;;
34573;SDS011;20809;49.594;8.734;2022-09-28T03:27:22;0.87;;;0.50;;
34573;SDS011;20809;49.594;8.734;2022-09-28T03:30:23;0.87;;;0.53;;
34573;SDS011;20809;49.594;8.734;2022-09-28T03:33:24;1.25;;;0.80;;
34573;SDS011;20809;49.594;8.734;2022-09-28T03:36:25;0.47;;;0.40;;
34573;SDS011;20809;49.594;8.734;2022-09-28T03:39:25;1.38;;;0.70;;
34573;SDS011;20809;49.594;8.734;2022-09-28T03:42:26;1.20;;;1.10;;
34573;SDS011;20809;49.594;8.734;2022-09-28T03:45:27;1.77;;;0.80;;
34573;SDS011;20809;49.594;8.734;2022-09-28T03:48:29;0.70;;;0.70;;
34573;SDS011;20809;49.594;8.734;2022-09-28T03:51:31;2.63;;;1.00;;
34573;SDS011;20809;49.594;8.734;2022-09-28T03:54:32;1.73;;;1.33;;
34573;SDS011;20809;49.594;8.734;2022-09-28T03:57:32;2.03;;;1.20;;
34573;SDS011;20809;49.594;8.734;2022-09-28T04:00:33;1.40;;;1.13;;
34573;SDS011;20809;49.594;8.734;2022-09-28T04:03:34;1.10;;;0.98;;
34573;SDS011;20809;49.594;8.734;2022-09-28T04:06:34;2.10;;;1.60;;
34573;SDS011;20809;49.594;8.734;2022-09-28T04:09:35;1.57;;;1.40;;
34573;SDS011;20809;49.594;8.734;2022-09-28T04:12:36;1.60;;;1.30;;
34573;SDS011;20809;49.594;8.734;2022-09-28T04:15:36;3.80;;;1.33;;
34573;SDS011;20809;49.594;8.734;2022-09-28T04:18:37;3.88;;;1.48;;
34573;SDS011;20809;49.594;8.734;2022-09-28T04:21:39;2.30;;;1.80;;
34573;SDS011;20809;49.594;8.734;2022-09-28T04:24:39;2.90;;;1.88;;
34573;SDS011;20809;49.594;8.734;2022-09-28T04:27:45;10.82;;;4.38;;
34573;SDS011;20809;49.594;8.734;2022-09-28T04:31:11;2.75;;;2.55;;
34573;SDS011;20809;49.594;8.734;2022-09-28T04:34:18;5.57;;;2.05;;
34573;SDS011;20809;49.594;8.734;2022-09-28T04:37:20;3.67;;;2.10;;
34573;SDS011;20809;49.594;8.734;2022-09-28T04:40:21;2.47;;;2.23;;
34573;SDS011;20809;49.594;8.734;2022-09-28T04:43:22;5.33;;;2.60;;
34573;SDS011;20809;49.594;8.734;2022-09-28T04:46:22;5.90;;;2.90;;
34573;SDS011;20809;49.594;8.734;2022-09-28T04:49:23;2.83;;;2.53;;
34573;SDS011;20809;49.594;8.734;2022-09-28T04:52:24;6.27;;;3.00;;
34573;SDS011;20809;49.594;8.734;2022-09-28T04:55:25;4.28;;;2.75;;
34573;SDS011;20809;49.594;8.734;2022-09-28T04:58:31;7.05;;;4.28;;
34573;SDS011;20809;49.594;8.734;2022-09-28T05:01:33;8.60;;;3.83;;
34573;SDS011;20809;49.594;8.734;2022-09-28T05:04:33;4.37;;;3.67;;
34573;SDS011;20809;49.594;8.734;2022-09-28T05:07:34;5.30;;;4.00;;
34573;SDS011;20809;49.594;8.734;2022-09-28T05:10:35;6.03;;;3.95;;
34573;SDS011;20809;49.594;8.734;2022-09-28T05:13:43;5.82;;;5.22;;
34573;SDS011;20809;49.594;8.734;2022-09-28T05:16:44;5.50;;;4.63;;
34573;SDS011;20809;49.594;8.734;2022-09-28T05:19:45;6.30;;;3.83;;
34573;SDS011;20809;49.594;8.734;2022-09-28T05:22:46;8.63;;;6.13;;
34573;SDS011;20809;49.594;8.734;2022-09-28T05:25:47;5.83;;;4.70;;
34573;SDS011;20809;49.594;8.734;2022-09-28T05:28:48;5.07;;;3.80;;
34573;SDS011;20809;49.594;8.734;2022-09-28T05:31:48;6.85;;;4.88;;
34573;SDS011;20809;49.594;8.734;2022-09-28T05:34:49;7.30;;;4.40;;
34573;SDS011;20809;49.594;8.734;2022-09-28T05:37:49;6.00;;;4.67;;
34573;SDS011;20809;49.594;8.734;2022-09-28T05:40:50;8.35;;;4.97;;
34573;SDS011;20809;49.594;8.734;2022-09-28T05:43:51;9.68;;;5.43;;
34573;SDS011;20809;49.594;8.734;2022-09-28T05:46:53;6.53;;;4.60;;
34573;SDS011;20809;49.594;8.734;2022-09-28T05:49:54;9.17;;;4.50;;
34573;SDS011;20809;49.594;8.734;2022-09-28T05:53:16;7.20;;;5.15;;
34573;SDS011;20809;49.594;8.734;2022-09-28T05:56:16;8.65;;;5.57;;
34573;SDS011;20809;49.594;8.734;2022-09-28T05:59:17;8.07;;;4.30;;
34573;SDS011;20809;49.594;8.734;2022-09-28T06:02:18;7.47;;;4.27;;
34573;SDS011;20809;49.594;8.734;2022-09-28T06:05:18;5.60;;;4.50;;
34573;SDS011;20809;49.594;8.734;2022-09-28T06:08:19;6.30;;;3.90;;
34573;SDS011;20809;49.594;8.734;2022-09-28T06:11:20;8.37;;;4.93;;
34573;SDS011;20809;49.594;8.734;2022-09-28T06:14:20;5.70;;;3.77;;
34573;SDS011;20809;49.594;8.734;2022-09-28T06:17:21;3.85;;;3.45;;
34573;SDS011;20809;49.594;8.734;2022-09-28T06:20:22;4.85;;;3.53;;
34573;SDS011;20809;49.594;8.734;2022-09-28T06:23:24;5.97;;;3.78;;
34573;SDS011;20809;49.594;8.734;2022-09-28T06:26:25;3.40;;;3.10;;
34573;SDS011;20809;49.594;8.734;2022-09-28T06:29:26;5.82;;;3.90;;
34573;SDS011;20809;49.594;8.734;2022-09-28T06:32:28;5.63;;;2.97;;
34573;SDS011;20809;49.594;8.734;2022-09-28T06:35:29;4.00;;;2.60;;
34573;SDS011;20809;49.594;8.734;2022-09-28T06:38:30;5.55;;;2.92;;
34573;SDS011;20809;49.594;8.734;2022-09-28T06:41:31;9.13;;;3.27;;
34573;SDS011;20809;49.594;8.734;2022-09-28T06:44:32;6.38;;;3.50;;
34573;SDS011;20809;49.594;8.734;2022-09-28T06:47:33;3.80;;;1.92;;
34573;SDS011;20809;49.594;8.734;2022-09-28T06:50:35;4.53;;;1.92;;
34573;SDS011;20809;49.594;8.734;2022-09-28T06:53:38;4.38;;;2.03;;
34573;SDS011;20809;49.594;8.734;2022-09-28T06:56:39;3.00;;;1.90;;
34573;SDS011;20809;49.594;8.734;2022-09-28T06:59:39;1.77;;;1.48;;
34573;SDS011;20809;49.594;8.734;2022-09-28T07:02:40;4.22;;;1.20;;
34573;SDS011;20809;49.594;8.734;2022-09-28T07:05:42;2.73;;;2.20;;
34573;SDS011;20809;49.594;8.734;2022-09-28T07:08:44;2.05;;;1.40;;
34573;SDS011;20809;49.594;8.734;2022-09-28T07:11:45;3.50;;;2.20;;
34573;SDS011;20809;49.594;8.734;2022-09-28T07:14:46;8.18;;;1.80;;
34573;SDS011;20809;49.594;8.734;2022-09-28T07:17:49;3.70;;;2.20;;
34573;SDS011;20809;49.594;8.734;2022-09-28T07:20:56;4.15;;;1.42;;
34573;SDS011;20809;49.594;8.734;2022-09-28T07:23:57;2.25;;;1.55;;
34573;SDS011;20809;49.594;8.734;2022-09-28T07:26:59;5.47;;;1.88;;
34573;SDS011;20809;49.594;8.734;2022-09-28T07:30:03;1.73;;;1.17;;
34573;SDS011;20809;49.594;8.734;2022-09-28T07:33:05;2.15;;;1.35;;
34573;SDS011;20809;49.594;8.734;2022-09-28T07:36:08;2.20;;;1.40;;
34573;SDS011;20809;49.594;8.734;2022-09-28T07:39:09;1.98;;;1.48;;
34573;SDS011;20809;49.594;8.734;2022-09-28T07:45:13;2.20;;;1.27;;
34573;SDS011;20809;49.594;8.734;2022-09-28T07:48:14;2.80;;;1.25;;
34573;SDS011;20809;49.594;8.734;2022-09-28T07:51:16;2.58;;;0.98;;
34573;SDS011;20809;49.594;8.734;2022-09-28T07:54:20;4.38;;;1.25;;
34573;SDS011;20809;49.594;8.734;2022-09-28T07:57:21;2.28;;;0.80;;
34573;SDS011;20809;49.594;8.734;2022-09-28T08:00:22;1.75;;;0.75;;
34573;SDS011;20809;49.594;8.734;2022-09-28T08:03:23;4.47;;;1.60;;
34573;SDS011;20809;49.594;8.734;2022-09-28T08:06:24;2.77;;;0.70;;
34573;SDS011;20809;49.594;8.734;2022-09-28T08:09:24;1.00;;;0.63;;
34573;SDS011;20809;49.594;8.734;2022-09-28T08:12:25;1.73;;;0.80;;
34573;SDS011;20809;49.594;8.734;2022-09-28T08:15:26;1.50;;;0.70;;
34573;SDS011;20809;49.594;8.734;2022-09-28T08:18:29;1.50;;;0.60;;
34573;SDS011;20809;49.594;8.734;2022-09-28T08:21:30;1.20;;;0.60;;
34573;SDS011;20809;49.594;8.734;2022-09-28T08:24:46;3.50;;;1.73;;
34573;SDS011;20809;49.594;8.734;2022-09-28T08:27:47;1.38;;;0.75;;
34573;SDS011;20809;49.594;8.734;2022-09-28T08:30:48;0.57;;;0.50;;
34573;SDS011;20809;49.594;8.734;2022-09-28T08:33:49;2.65;;;0.60;;
34573;SDS011;20809;49.594;8.734;2022-09-28T08:36:54;1.70;;;0.50;;
34573;SDS011;20809;49.594;8.734;2022-09-28T08:39:56;1.52;;;0.52;;
34573;SDS011;20809;49.594;8.734;2022-09-28T08:42:57;0.70;;;0.47;;
34573;SDS011;20809;49.594;8.734;2022-09-28T08:46:03;3.15;;;1.55;;
34573;SDS011;20809;49.594;8.734;2022-09-28T08:52:23;1.73;;;0.50;;
34573;SDS011;20809;49.594;8.734;2022-09-28T08:55:29;0.82;;;0.50;;
34573;SDS011;20809;49.594;8.734;2022-09-28T08:58:34;0.60;;;0.43;;
34573;SDS011;20809;49.594;8.734;2022-09-28T09:01:41;1.63;;;0.57;;
34573;SDS011;20809;49.594;8.734;2022-09-28T09:04:46;3.67;;;0.40;;
34573;SDS011;20809;49.594;8.734;2022-09-28T09:22:01;2.55;;;0.73;;
34573;SDS011;20809;49.594;8.734;2022-09-28T09:25:27;4.45;;;0.60;;
34573;SDS011;20809;49.594;8.734;2022-09-28T09:32:53;3.05;;;0.60;;
34573;SDS011;20809;49.594;8.734;2022-09-28T09:45:17;0.52;;;0.40;;
34573;SDS011;20809;49.594;8.734;2022-09-28T09:51:46;0.93;;;0.67;;
34573;SDS011;20809;49.594;8.734;2022-09-28T09:54:57;0.95;;;0.50;;
34573;SDS011;20809;49.594;8.734;2022-09-28T09:58:03;0.93;;;0.40;;
34573;SDS011;20809;49.594;8.734;2022-09-28T10:01:30;1.83;;;0.45;;
34573;SDS011;20809;49.594;8.734;2022-09-28T10:04:35;1.33;;;0.50;;
34573;SDS011;20809;49.594;8.734;2022-09-28T10:14:18;1.92;;;0.60;;
34573;SDS011;20809;49.594;8.734;2022-09-28T10:17:21;3.00;;;0.50;;
34573;SDS011;20809;49.594;8.734;2022-09-28T10:20:26;0.80;;;0.50;;
34573;SDS011;20809;49.594;8.734;2022-09-28T10:23:31;1.17;;;0.50;;
34573;SDS011;20809;49.594;8.734;2022-09-28T10:26:36;2.80;;;0.52;;
34573;SDS011;20809;49.594;8.734;2022-09-28T10:29:44;1.58;;;0.70;;
34573;SDS011;20809;49.594;8.734;2022-09-28T10:32:54;2.75;;;0.98;;
34573;SDS011;20809;49.594;8.734;2022-09-28T10:35:59;1.90;;;0.60;;
34573;SDS011;20809;49.594;8.734;2022-09-28T10:39:01;1.10;;;0.60;;
34573;SDS011;20809;49.594;8.734;2022-09-28T10:42:05;1.20;;;0.60;;
34573;SDS011;20809;49.594;8.734;2022-09-28T10:48:19;0.93;;;0.70;;
34573;SDS011;20809;49.594;8.734;2022-09-28T10:51:38;1.30;;;0.70;;
34573;SDS011;20809;49.594;8.734;2022-09-28T10:54:40;1.05;;;0.57;;
34573;SDS011;20809;49.594;8.734;2022-09-28T10:57:52;2.58;;;0.93;;
34573;SDS011;20809;49.594;8.734;2022-09-28T11:00:57;1.70;;;0.65;;
34573;SDS011;20809;49.594;8.734;2022-09-28T11:04:12;2.08;;;0.82;;
34573;SDS011;20809;49.594;8.734;2022-09-28T11:07:43;1.58;;;1.02;;
34573;SDS011;20809;49.594;8.734;2022-09-28T11:10:45;2.90;;;0.40;;
34573;SDS011;20809;49.594;8.734;2022-09-28T11:13:48;0.88;;;0.55;;
34573;SDS011;20809;49.594;8.734;2022-09-28T11:17:13;2.33;;;1.35;;
34573;SDS011;20809;49.594;8.734;2022-09-28T11:20:31;2.13;;;0.50;;
34573;SDS011;20809;49.594;8.734;2022-09-28T11:23:34;1.63;;;0.45;;
34573;SDS011;20809;49.594;8.734;2022-09-28T11:26:36;3.00;;;0.40;;
34573;SDS011;20809;49.594;8.734;2022-09-28T11:29:42;0.32;;;0.30;;
34573;SDS011;20809;49.594;8.734;2022-09-28T11:32:50;2.22;;;0.40;;
34573;SDS011;20809;49.594;8.734;2022-09-28T11:39:16;2.67;;;0.50;;
34573;SDS011;20809;49.594;8.734;2022-09-28T11:55:31;4.65;;;0.57;;
34573;SDS011;20809;49.594;8.734;2022-09-28T11:58:34;1.80;;;0.45;;
34573;SDS011;20809;49.594;8.734;2022-09-28T12:08:03;2.33;;;0.60;;
34573;SDS011;20809;49.594;8.734;2022-09-28T12:11:15;1.02;;;0.50;;
34573;SDS011;20809;49.594;8.734;2022-09-28T12:14:28;2.45;;;0.70;;
34573;SDS011;20809;49.594;8.734;2022-09-28T12:17:35;0.40;;;0.40;;
34573;SDS011;20809;49.594;8.734;2022-09-28T12:20:43;0.60;;;0.30;;
34573;SDS011;20809;49.594;8.734;2022-09-28T12:23:46;1.13;;;0.50;;
34573;SDS011;20809;49.594;8.734;2022-09-28T12:27:10;0.98;;;0.68;;
34573;SDS011;20809;49.594;8.734;2022-09-28T12:30:30;1.77;;;0.40;;
34573;SDS011;20809;49.594;8.734;2022-09-28T12:33:34;3.85;;;0.77;;
34573;SDS011;20809;49.594;8.734;2022-09-28T12:40:20;0.47;;;0.40;;
34573;SDS011;20809;49.594;8.734;2022-09-28T12:43:57;2.92;;;0.40;;
34573;SDS011;20809;49.594;8.734;2022-09-28T13:00:18;0.70;;;0.40;;
34573;SDS011;20809;49.594;8.734;2022-09-28T13:03:29;0.77;;;0.73;;
34573;SDS011;20809;49.594;8.734;2022-09-28T13:06:53;1.50;;;0.40;;
34573;SDS011;20809;49.594;8.734;2022-09-28T13:10:21;1.80;;;0.75;;
34573;SDS011;20809;49.594;8.734;2022-09-28T13:17:23;1.88;;;0.47;;
34573;SDS011;20809;49.594;8.734;2022-09-28T13:23:48;1.15;;;0.63;;
34573;SDS011;20809;49.594;8.734;2022-09-28T13:26:52;0.70;;;0.30;;
34573;SDS011;20809;49.594;8.734;2022-09-28T13:29:57;3.38;;;0.60;;
34573;SDS011;20809;49.594;8.734;2022-09-28T13:33:03;0.75;;;0.40;;
34573;SDS011;20809;49.594;8.734;2022-09-28T13:39:35;1.00;;;0.50;;
34573;SDS011;20809;49.594;8.734;2022-09-28T13:42:49;0.95;;;0.57;;
34573;SDS011;20809;49.594;8.734;2022-09-28T13:45:59;0.65;;;0.50;;
34573;SDS011;20809;49.594;8.734;2022-09-28T13:52:57;3.08;;;0.60;;
34573;SDS011;20809;49.594;8.734;2022-09-28T13:59:51;1.20;;;0.40;;
34573;SDS011;20809;49.594;8.734;2022-09-28T14:06:31;1.27;;;0.40;;
34573;SDS011;20809;49.594;8.734;2022-09-28T14:09:45;0.63;;;0.40;;
34573;SDS011;20809;49.594;8.734;2022-09-28T14:12:49;4.13;;;0.47;;
34573;SDS011;20809;49.594;8.734;2022-09-28T14:15:50;0.68;;;0.47;;
34573;SDS011;20809;49.594;8.734;2022-09-28T14:19:02;1.25;;;1.15;;
34573;SDS011;20809;49.594;8.734;2022-09-28T14:25:23;1.98;;;0.50;;
34573;SDS011;20809;49.594;8.734;2022-09-28T14:31:50;1.75;;;0.38;;
34573;SDS011;20809;49.594;8.734;2022-09-28T14:35:01;1.48;;;0.43;;
34573;SDS011;20809;49.594;8.734;2022-09-28T14:38:19;1.95;;;0.50;;
34573;SDS011;20809;49.594;8.734;2022-09-28T14:41:41;0.68;;;0.63;;
34573;SDS011;20809;49.594;8.734;2022-09-28T14:45:43;1.17;;;0.40;;
34573;SDS011;20809;49.594;8.734;2022-09-28T14:48:13;0.30;;;0.30;;
34573;SDS011;20809;49.594;8.734;2022-09-28T14:54:26;0.60;;;0.50;;
34573;SDS011;20809;49.594;8.734;2022-09-28T14:57:40;1.77;;;0.45;;
34573;SDS011;20809;49.594;8.734;2022-09-28T15:00:42;0.45;;;0.30;;
34573;SDS011;20809;49.594;8.734;2022-09-28T15:03:48;1.40;;;1.02;;
34573;SDS011;20809;49.594;8.734;2022-09-28T15:06:53;1.27;;;0.30;;
34573;SDS011;20809;49.594;8.734;2022-09-28T15:09:55;1.13;;;0.50;;
34573;SDS011;20809;49.594;8.734;2022-09-28T15:12:57;0.75;;;0.40;;
34573;SDS011;20809;49.594;8.734;2022-09-28T15:16:03;1.00;;;0.45;;
34573;SDS011;20809;49.594;8.734;2022-09-28T15:19:11;0.40;;;0.40;;
34573;SDS011;20809;49.594;8.734;2022-09-28T15:22:19;0.50;;;0.43;;
34573;SDS011;20809;49.594;8.734;2022-09-28T15:25:21;1.95;;;0.40;;
34573;SDS011;20809;49.594;8.734;2022-09-28T15:28:24;0.50;;;0.40;;
34573;SDS011;20809;49.594;8.734;2022-09-28T15:31:25;1.25;;;0.70;;
34573;SDS011;20809;49.594;8.734;2022-09-28T15:34:31;0.98;;;0.88;;
34573;SDS011;20809;49.594;8.734;2022-09-28T15:37:52;1.23;;;0.52;;
34573;SDS011;20809;49.594;8.734;2022-09-28T15:40:53;1.30;;;0.40;;
34573;SDS011;20809;49.594;8.734;2022-09-28T15:47:11;2.03;;;0.63;;
34573;SDS011;20809;49.594;8.734;2022-09-28T15:50:21;1.10;;;0.80;;
34573;SDS011;20809;49.594;8.734;2022-09-28T15:53:33;1.70;;;0.75;;
34573;SDS011;20809;49.594;8.734;2022-09-28T15:56:49;1.83;;;0.77;;
34573;SDS011;20809;49.594;8.734;2022-09-28T15:59:54;0.57;;;0.40;;
34573;SDS011;20809;49.594;8.734;2022-09-28T16:03:41;2.67;;;1.98;;
34573;SDS011;20809;49.594;8.734;2022-09-28T16:06:16;1.88;;;0.90;;
34573;SDS011;20809;49.594;8.734;2022-09-28T16:09:29;1.50;;;0.60;;
34573;SDS011;20809;49.594;8.734;2022-09-28T16:15:37;0.65;;;0.65;;
34573;SDS011;20809;49.594;8.734;2022-09-28T16:18:38;0.55;;;0.52;;
34573;SDS011;20809;49.594;8.734;2022-09-28T16:21:45;0.80;;;0.68;;
34573;SDS011;20809;49.594;8.734;2022-09-28T16:24:53;1.42;;;0.73;;
34573;SDS011;20809;49.594;8.734;2022-09-28T16:27:56;1.20;;;0.77;;
34573;SDS011;20809;49.594;8.734;2022-09-28T16:34:08;2.55;;;1.15;;
34573;SDS011;20809;49.594;8.734;2022-09-28T16:37:22;3.40;;;2.15;;
34573;SDS011;20809;49.594;8.734;2022-09-28T16:40:31;1.23;;;0.90;;
34573;SDS011;20809;49.594;8.734;2022-09-28T16:43:32;2.22;;;1.48;;
34573;SDS011;20809;49.594;8.734;2022-09-28T16:46:35;1.58;;;1.02;;
34573;SDS011;20809;49.594;8.734;2022-09-28T16:49:36;1.30;;;1.08;;
34573;SDS011;20809;49.594;8.734;2022-09-28T16:52:38;3.33;;;1.45;;
34573;SDS011;20809;49.594;8.734;2022-09-28T16:55:58;4.13;;;1.38;;
34573;SDS011;20809;49.594;8.734;2022-09-28T16:59:00;2.45;;;1.30;;
34573;SDS011;20809;49.594;8.734;2022-09-28T17:02:01;6.15;;;5.65;;
34573;SDS011;20809;49.594;8.734;2022-09-28T17:05:13;5.60;;;3.00;;
34573;SDS011;20809;49.594;8.734;2022-09-28T17:08:16;5.40;;;3.33;;
34573;SDS011;20809;49.594;8.734;2022-09-28T17:11:18;5.45;;;3.63;;
34573;SDS011;20809;49.594;8.734;2022-09-28T17:14:19;5.47;;;3.53;;
34573;SDS011;20809;49.594;8.734;2022-09-28T17:17:22;6.97;;;3.20;;
34573;SDS011;20809;49.594;8.734;2022-09-28T17:20:25;6.65;;;3.47;;
34573;SDS011;20809;49.594;8.734;2022-09-28T17:23:28;3.28;;;2.97;;
34573;SDS011;20809;49.594;8.734;2022-09-28T17:26:29;7.28;;;3.40;;
34573;SDS011;20809;49.594;8.734;2022-09-28T17:29:32;6.43;;;3.60;;
34573;SDS011;20809;49.594;8.734;2022-09-28T17:32:32;5.10;;;3.30;;
34573;SDS011;20809;49.594;8.734;2022-09-28T17:35:34;6.32;;;4.97;;
34573;SDS011;20809;49.594;8.734;2022-09-28T17:38:36;3.72;;;2.50;;
34573;SDS011;20809;49.594;8.734;2022-09-28T17:41:36;4.40;;;2.87;;
34573;SDS011;20809;49.594;8.734;2022-09-28T17:44:37;6.45;;;3.00;;
34573;SDS011;20809;49.594;8.734;2022-09-28T17:47:38;4.37;;;3.03;;
34573;SDS011;20809;49.594;8.734;2022-09-28T17:50:39;4.67;;;2.63;;
34573;SDS011;20809;49.594;8.734;2022-09-28T17:53:41;4.47;;;3.42;;
34573;SDS011;20809;49.594;8.734;2022-09-28T17:56:42;10.27;;;4.57;;
34573;SDS011;20809;49.594;8.734;2022-09-28T17:59:43;6.63;;;3.25;;
34573;SDS011;20809;49.594;8.734;2022-09-28T18:02:43;6.10;;;3.00;;
34573;SDS011;20809;49.594;8.734;2022-09-28T18:05:45;7.65;;;4.07;;
34573;SDS011;20809;49.594;8.734;2022-09-28T18:08:48;12.20;;;6.25;;
34573;SDS011;20809;49.594;8.734;2022-09-28T18:11:49;12.13;;;6.90;;
34573;SDS011;20809;49.594;8.734;2022-09-28T18:14:58;12.63;;;7.20;;
34573;SDS011;20809;49.594;8.734;2022-09-28T18:17:58;15.50;;;7.97;;
34573;SDS011;20809;49.594;8.734;2022-09-28T18:20:59;11.18;;;6.93;;
34573;SDS011;20809;49.594;8.734;2022-09-28T18:24:00;9.57;;;6.55;;
34573;SDS011;20809;49.594;8.734;2022-09-28T18:27:01;6.40;;;3.00;;
34573;SDS011;20809;49.594;8.734;2022-09-28T18:30:02;11.05;;;6.22;;
34573;SDS011;20809;49.594;8.734;2022-09-28T18:33:03;6.70;;;4.80;;
34573;SDS011;20809;49.594;8.734;2022-09-28T18:36:05;4.00;;;3.60;;
34573;SDS011;20809;49.594;8.734;2022-09-28T18:39:06;6.80;;;5.60;;
34573;SDS011;20809;49.594;8.734;2022-09-28T18:42:07;8.37;;;3.97;;
34573;SDS011;20809;49.594;8.734;2022-09-28T18:45:09;8.13;;;4.45;;
34573;SDS011;20809;49.594;8.734;2022-09-28T18:48:10;7.15;;;4.25;;
34573;SDS011;20809;49.594;8.734;2022-09-28T18:51:11;3.87;;;3.47;;
34573;SDS011;20809;49.594;8.734;2022-09-28T18:54:12;8.77;;;4.68;;
34573;SDS011;20809;49.594;8.734;2022-09-28T18:57:13;6.82;;;4.32;;
34573;SDS011;20809;49.594;8.734;2022-09-28T19:00:14;14.13;;;5.18;;
34573;SDS011;20809;49.594;8.734;2022-09-28T19:03:14;11.67;;;6.23;;
34573;SDS011;20809;49.594;8.734;2022-09-28T19:06:15;10.00;;;6.43;;
34573;SDS011;20809;49.594;8.734;2022-09-28T19:09:17;7.18;;;5.70;;
34573;SDS011;20809;49.594;8.734;2022-09-28T19:12:19;11.02;;;5.88;;
34573;SDS011;20809;49.594;8.734;2022-09-28T19:15:20;9.50;;;6.38;;
34573;SDS011;20809;49.594;8.734;2022-09-28T19:18:21;7.97;;;4.88;;
34573;SDS011;20809;49.594;8.734;2022-09-28T19:21:22;9.10;;;5.80;;
34573;SDS011;20809;49.594;8.734;2022-09-28T19:24:23;7.85;;;5.55;;
34573;SDS011;20809;49.594;8.734;2022-09-28T19:27:24;8.73;;;5.47;;
34573;SDS011;20809;49.594;8.734;2022-09-28T19:30:24;10.97;;;6.63;;
34573;SDS011;20809;49.594;8.734;2022-09-28T19:36:35;15.20;;;9.90;;
34573;SDS011;20809;49.594;8.734;2022-09-28T19:39:36;17.17;;;12.20;;
34573;SDS011;20809;49.594;8.734;2022-09-28T19:42:37;17.77;;;12.23;;
34573;SDS011;20809;49.594;8.734;2022-09-28T19:45:39;17.52;;;11.65;;
34573;SDS011;20809;49.594;8.734;2022-09-28T19:48:51;27.42;;;17.70;;
34573;SDS011;20809;49.594;8.734;2022-09-28T19:51:52;25.50;;;17.07;;
34573;SDS011;20809;49.594;8.734;2022-09-28T19:54:57;19.70;;;12.23;;
34573;SDS011;20809;49.594;8.734;2022-09-28T19:57:59;11.20;;;7.40;;
34573;SDS011;20809;49.594;8.734;2022-09-28T20:01:06;12.38;;;7.82;;
34573;SDS011;20809;49.594;8.734;2022-09-28T20:04:07;18.25;;;10.60;;
34573;SDS011;20809;49.594;8.734;2022-09-28T20:07:08;12.93;;;9.20;;
34573;SDS011;20809;49.594;8.734;2022-09-28T20:10:08;11.07;;;7.73;;
34573;SDS011;20809;49.594;8.734;2022-09-28T20:13:10;10.73;;;7.80;;
34573;SDS011;20809;49.594;8.734;2022-09-28T20:16:15;11.30;;;8.07;;
34573;SDS011;20809;49.594;8.734;2022-09-28T20:19:17;13.88;;;8.73;;
34573;SDS011;20809;49.594;8.734;2022-09-28T20:22:20;14.05;;;10.18;;
34573;SDS011;20809;49.594;8.734;2022-09-28T20:25:21;13.13;;;9.83;;
34573;SDS011;20809;49.594;8.734;2022-09-28T20:28:22;16.00;;;9.03;;
34573;SDS011;20809;49.594;8.734;2022-09-28T20:31:23;12.52;;;7.32;;
34573;SDS011;20809;49.594;8.734;2022-09-28T20:34:24;13.13;;;6.32;;
34573;SDS011;20809;49.594;8.734;2022-09-28T20:37:25;10.52;;;7.32;;
34573;SDS011;20809;49.594;8.734;2022-09-28T20:40:25;11.60;;;7.47;;
34573;SDS011;20809;49.594;8.734;2022-09-28T20:43:27;14.25;;;7.40;;
34573;SDS011;20809;49.594;8.734;2022-09-28T20:46:31;15.75;;;9.82;;
34573;SDS011;20809;49.594;8.734;2022-09-28T20:49:32;16.98;;;9.75;;
34573;SDS011;20809;49.594;8.734;2022-09-28T20:52:32;22.17;;;10.77;;
34573;SDS011;20809;49.594;8.734;2022-09-28T20:55:33;18.50;;;11.20;;
34573;SDS011;20809;49.594;8.734;2022-09-28T20:58:36;13.50;;;9.03;;
34573;SDS011;20809;49.594;8.734;2022-09-28T21:01:40;7.50;;;5.32;;
34573;SDS011;20809;49.594;8.734;2022-09-28T21:04:41;6.00;;;4.93;;
34573;SDS011;20809;49.594;8.734;2022-09-28T21:07:42;8.23;;;5.93;;
34573;SDS011;20809;49.594;8.734;2022-09-28T21:10:43;9.67;;;5.80;;
34573;SDS011;20809;49.594;8.734;2022-09-28T21:13:43;8.93;;;6.13;;
34573;SDS011;20809;49.594;8.734;2022-09-28T21:16:44;10.23;;;7.50;;
34573;SDS011;20809;49.594;8.734;2022-09-28T21:19:45;11.37;;;8.03;;
34573;SDS011;20809;49.594;8.734;2022-09-28T21:22:46;9.87;;;7.80;;